Disclaimer

Please do not use the information listed here in-flight or in-navigation, as they are not provided to us by the airports but are provided by volunteers, so they might be outdated.

Search


Regions


Airport information page

Radio informations:
Tower (TWR) - 118.85 MHz
Ground (GND) - 123.15 MHz
GANGNEUNG DEP - 124.6 MHz
CLD - 123.15 MHz
GANGNEUNG APP - 124.6 MHz

Airport informations:
Latitude: 38° 03' 40.72" N
Longitude: 128° 40' 08.99" E
Elevation: 241 feet - 73 meters
Operating hours: N/A
Operating agency: Civil government, landing fees and diplomatic clearance may be required
Timezone: UTC+9
Fuel: Jet A1+, Jet A1 with icing inhibitor.

Runway information:
15/33 - 8202 x 148 feet< - >2500 x 45 meters

Recent METARs:
RKNY 122000Z AUTO 24003KT 9999 NCD 08/07 Q1019
RKNY 122100Z AUTO 26006KT 9999 ///076/// 08/06 Q1019
RKNY 122100Z AUTO 26006KT 9999 ///076/// 08/06 Q1019

Airport on the map: